Terminal Aerodrome Forecast
Issued by NWS Austin/San Antonio, TX

Home | Current Version | Previous Version | Text Only | Print | Product List | Glossary On
Versions: 1 2 3 4 5 6 7 8 9 10 11 12 13 14 15 16 17 18 19 20 21 22
483
FTUS44 KEWX 231733
TAFAUS
TAF
KAUS 231733Z 2318/2424 36015KT P6SM SKC
     FM232300 02008KT P6SM SKC
     FM240200 VRB03KT P6SM SKC
     FM241500 17010KT P6SM FEW250=

USA.gov is the U.S. government's official web portal to all federal, state and local government web resources and services.